sensor_id;sensor_type;location;lat;lon;timestamp;P1;durP1;ratioP1;P2;durP2;ratioP2
9106;SDS011;4589;48.690;8.952;2023-07-09T00:01:58;8.93;;;4.73;;
9106;SDS011;4589;48.690;8.952;2023-07-09T00:04:24;5.87;;;4.37;;
9106;SDS011;4589;48.690;8.952;2023-07-09T00:06:49;6.43;;;4.67;;
9106;SDS011;4589;48.690;8.952;2023-07-09T00:09:19;9.70;;;4.90;;
9106;SDS011;4589;48.690;8.952;2023-07-09T00:11:46;6.87;;;4.30;;
9106;SDS011;4589;48.690;8.952;2023-07-09T00:14:13;7.53;;;4.10;;
9106;SDS011;4589;48.690;8.952;2023-07-09T00:16:40;4.63;;;4.23;;
9106;SDS011;4589;48.690;8.952;2023-07-09T00:19:11;4.37;;;3.73;;
9106;SDS011;4589;48.690;8.952;2023-07-09T00:21:41;6.33;;;4.37;;
9106;SDS011;4589;48.690;8.952;2023-07-09T00:24:07;5.93;;;4.30;;
9106;SDS011;4589;48.690;8.952;2023-07-09T00:26:35;9.37;;;4.10;;
9106;SDS011;4589;48.690;8.952;2023-07-09T00:29:03;5.93;;;4.50;;
9106;SDS011;4589;48.690;8.952;2023-07-09T00:31:30;6.60;;;5.10;;
9106;SDS011;4589;48.690;8.952;2023-07-09T00:33:56;5.70;;;4.60;;
9106;SDS011;4589;48.690;8.952;2023-07-09T00:36:26;5.80;;;3.90;;
9106;SDS011;4589;48.690;8.952;2023-07-09T00:38:53;5.40;;;4.30;;
9106;SDS011;4589;48.690;8.952;2023-07-09T00:41:22;6.30;;;4.37;;
9106;SDS011;4589;48.690;8.952;2023-07-09T00:43:49;5.93;;;4.67;;
9106;SDS011;4589;48.690;8.952;2023-07-09T00:48:52;9.40;;;5.43;;
9106;SDS011;4589;48.690;8.952;2023-07-09T00:51:23;6.97;;;5.03;;
9106;SDS011;4589;48.690;8.952;2023-07-09T00:53:51;7.77;;;4.93;;
9106;SDS011;4589;48.690;8.952;2023-07-09T00:56:24;5.10;;;4.53;;
9106;SDS011;4589;48.690;8.952;2023-07-09T00:59:03;7.83;;;3.80;;
9106;SDS011;4589;48.690;8.952;2023-07-09T01:01:32;7.50;;;5.00;;
9106;SDS011;4589;48.690;8.952;2023-07-09T01:03:59;7.13;;;4.57;;
9106;SDS011;4589;48.690;8.952;2023-07-09T01:06:28;6.50;;;4.63;;
9106;SDS011;4589;48.690;8.952;2023-07-09T01:09:03;5.33;;;4.80;;
9106;SDS011;4589;48.690;8.952;2023-07-09T01:11:29;5.50;;;4.50;;
9106;SDS011;4589;48.690;8.952;2023-07-09T01:13:56;5.80;;;4.60;;
9106;SDS011;4589;48.690;8.952;2023-07-09T01:16:25;7.90;;;5.23;;
9106;SDS011;4589;48.690;8.952;2023-07-09T01:18:54;5.73;;;4.60;;
9106;SDS011;4589;48.690;8.952;2023-07-09T01:21:19;11.30;;;5.53;;
9106;SDS011;4589;48.690;8.952;2023-07-09T01:23:46;8.90;;;4.70;;
9106;SDS011;4589;48.690;8.952;2023-07-09T01:26:14;7.43;;;4.87;;
9106;SDS011;4589;48.690;8.952;2023-07-09T01:28:44;6.07;;;4.50;;
9106;SDS011;4589;48.690;8.952;2023-07-09T01:31:11;7.43;;;4.33;;
9106;SDS011;4589;48.690;8.952;2023-07-09T01:33:38;7.30;;;4.70;;
9106;SDS011;4589;48.690;8.952;2023-07-09T01:36:05;6.07;;;4.90;;
9106;SDS011;4589;48.690;8.952;2023-07-09T01:38:32;4.93;;;4.43;;
9106;SDS011;4589;48.690;8.952;2023-07-09T01:40:58;5.50;;;4.90;;
9106;SDS011;4589;48.690;8.952;2023-07-09T01:43:25;5.80;;;4.73;;
9106;SDS011;4589;48.690;8.952;2023-07-09T01:45:51;7.30;;;5.23;;
9106;SDS011;4589;48.690;8.952;2023-07-09T01:48:18;7.23;;;4.70;;
9106;SDS011;4589;48.690;8.952;2023-07-09T01:50:45;6.00;;;4.43;;
9106;SDS011;4589;48.690;8.952;2023-07-09T01:53:14;5.03;;;4.53;;
9106;SDS011;4589;48.690;8.952;2023-07-09T01:55:42;9.00;;;5.53;;
9106;SDS011;4589;48.690;8.952;2023-07-09T01:58:09;5.93;;;4.70;;
9106;SDS011;4589;48.690;8.952;2023-07-09T02:00:36;8.20;;;5.17;;
9106;SDS011;4589;48.690;8.952;2023-07-09T02:03:03;5.00;;;4.50;;
9106;SDS011;4589;48.690;8.952;2023-07-09T02:05:33;6.30;;;5.30;;
9106;SDS011;4589;48.690;8.952;2023-07-09T02:07:59;6.10;;;4.90;;
9106;SDS011;4589;48.690;8.952;2023-07-09T02:10:25;7.70;;;4.90;;
9106;SDS011;4589;48.690;8.952;2023-07-09T02:12:51;6.73;;;5.10;;
9106;SDS011;4589;48.690;8.952;2023-07-09T02:15:16;6.20;;;4.83;;
9106;SDS011;4589;48.690;8.952;2023-07-09T02:17:42;5.80;;;4.80;;
9106;SDS011;4589;48.690;8.952;2023-07-09T02:20:09;6.30;;;5.13;;
9106;SDS011;4589;48.690;8.952;2023-07-09T02:22:36;7.00;;;5.10;;
9106;SDS011;4589;48.690;8.952;2023-07-09T02:25:03;5.40;;;4.70;;
9106;SDS011;4589;48.690;8.952;2023-07-09T02:27:30;7.83;;;5.63;;
9106;SDS011;4589;48.690;8.952;2023-07-09T02:29:57;9.10;;;4.53;;
9106;SDS011;4589;48.690;8.952;2023-07-09T02:32:24;8.60;;;5.20;;
9106;SDS011;4589;48.690;8.952;2023-07-09T02:34:53;7.10;;;5.33;;
9106;SDS011;4589;48.690;8.952;2023-07-09T02:37:20;6.90;;;4.83;;
9106;SDS011;4589;48.690;8.952;2023-07-09T02:39:48;6.10;;;4.53;;
9106;SDS011;4589;48.690;8.952;2023-07-09T02:42:14;6.83;;;4.93;;
9106;SDS011;4589;48.690;8.952;2023-07-09T02:44:42;5.83;;;4.73;;
9106;SDS011;4589;48.690;8.952;2023-07-09T02:47:08;8.60;;;5.53;;
9106;SDS011;4589;48.690;8.952;2023-07-09T02:49:34;8.10;;;5.73;;
9106;SDS011;4589;48.690;8.952;2023-07-09T02:52:00;7.40;;;5.10;;
9106;SDS011;4589;48.690;8.952;2023-07-09T02:54:26;5.30;;;4.67;;
9106;SDS011;4589;48.690;8.952;2023-07-09T02:56:52;6.30;;;4.77;;
9106;SDS011;4589;48.690;8.952;2023-07-09T02:59:18;6.40;;;4.90;;
9106;SDS011;4589;48.690;8.952;2023-07-09T03:01:45;8.63;;;5.90;;
9106;SDS011;4589;48.690;8.952;2023-07-09T03:04:12;5.77;;;4.67;;
9106;SDS011;4589;48.690;8.952;2023-07-09T03:06:38;5.10;;;4.60;;
9106;SDS011;4589;48.690;8.952;2023-07-09T03:09:05;6.40;;;5.37;;
9106;SDS011;4589;48.690;8.952;2023-07-09T03:11:32;7.17;;;5.80;;
9106;SDS011;4589;48.690;8.952;2023-07-09T03:13:59;7.20;;;5.00;;
9106;SDS011;4589;48.690;8.952;2023-07-09T03:16:28;8.60;;;5.77;;
9106;SDS011;4589;48.690;8.952;2023-07-09T03:18:55;12.93;;;5.90;;
9106;SDS011;4589;48.690;8.952;2023-07-09T03:21:22;6.77;;;5.77;;
9106;SDS011;4589;48.690;8.952;2023-07-09T03:23:48;7.57;;;5.40;;
9106;SDS011;4589;48.690;8.952;2023-07-09T03:26:13;10.97;;;5.30;;
9106;SDS011;4589;48.690;8.952;2023-07-09T03:28:40;7.23;;;5.80;;
9106;SDS011;4589;48.690;8.952;2023-07-09T03:31:06;8.07;;;5.57;;
9106;SDS011;4589;48.690;8.952;2023-07-09T03:33:32;8.30;;;5.60;;
9106;SDS011;4589;48.690;8.952;2023-07-09T03:35:58;5.50;;;4.87;;
9106;SDS011;4589;48.690;8.952;2023-07-09T03:38:24;7.13;;;5.40;;
9106;SDS011;4589;48.690;8.952;2023-07-09T03:40:50;6.63;;;4.70;;
9106;SDS011;4589;48.690;8.952;2023-07-09T03:43:19;8.90;;;5.20;;
9106;SDS011;4589;48.690;8.952;2023-07-09T03:45:45;6.33;;;5.20;;
9106;SDS011;4589;48.690;8.952;2023-07-09T03:48:12;4.73;;;4.33;;
9106;SDS011;4589;48.690;8.952;2023-07-09T03:50:38;4.90;;;4.40;;
9106;SDS011;4589;48.690;8.952;2023-07-09T03:53:04;5.80;;;5.30;;
9106;SDS011;4589;48.690;8.952;2023-07-09T03:55:31;7.10;;;5.20;;
9106;SDS011;4589;48.690;8.952;2023-07-09T03:57:57;8.93;;;5.20;;
9106;SDS011;4589;48.690;8.952;2023-07-09T04:00:23;6.03;;;4.90;;
9106;SDS011;4589;48.690;8.952;2023-07-09T04:02:51;6.10;;;4.53;;
9106;SDS011;4589;48.690;8.952;2023-07-09T04:05:17;8.07;;;5.00;;
9106;SDS011;4589;48.690;8.952;2023-07-09T04:07:43;6.37;;;4.90;;
9106;SDS011;4589;48.690;8.952;2023-07-09T04:10:09;6.10;;;4.43;;
9106;SDS011;4589;48.690;8.952;2023-07-09T04:12:35;10.50;;;5.40;;
9106;SDS011;4589;48.690;8.952;2023-07-09T04:15:05;6.63;;;4.60;;
9106;SDS011;4589;48.690;8.952;2023-07-09T04:17:31;6.53;;;5.40;;
9106;SDS011;4589;48.690;8.952;2023-07-09T04:19:56;11.33;;;5.40;;
9106;SDS011;4589;48.690;8.952;2023-07-09T04:22:22;7.27;;;5.00;;
9106;SDS011;4589;48.690;8.952;2023-07-09T04:24:48;7.87;;;5.10;;
9106;SDS011;4589;48.690;8.952;2023-07-09T04:27:14;7.40;;;4.83;;
9106;SDS011;4589;48.690;8.952;2023-07-09T04:29:40;6.97;;;5.27;;
9106;SDS011;4589;48.690;8.952;2023-07-09T04:32:07;6.73;;;5.27;;
9106;SDS011;4589;48.690;8.952;2023-07-09T04:34:36;6.00;;;5.17;;
9106;SDS011;4589;48.690;8.952;2023-07-09T04:37:04;5.47;;;4.87;;
9106;SDS011;4589;48.690;8.952;2023-07-09T04:39:31;7.00;;;5.03;;
9106;SDS011;4589;48.690;8.952;2023-07-09T04:41:57;8.23;;;5.43;;
9106;SDS011;4589;48.690;8.952;2023-07-09T04:44:22;7.77;;;5.10;;
9106;SDS011;4589;48.690;8.952;2023-07-09T04:46:48;9.03;;;5.60;;
9106;SDS011;4589;48.690;8.952;2023-07-09T04:49:14;12.13;;;5.30;;
9106;SDS011;4589;48.690;8.952;2023-07-09T04:51:39;5.73;;;5.13;;
9106;SDS011;4589;48.690;8.952;2023-07-09T04:54:05;8.33;;;5.37;;
9106;SDS011;4589;48.690;8.952;2023-07-09T04:56:31;6.10;;;5.30;;
9106;SDS011;4589;48.690;8.952;2023-07-09T04:58:56;11.13;;;5.80;;
9106;SDS011;4589;48.690;8.952;2023-07-09T05:01:22;6.10;;;5.50;;
9106;SDS011;4589;48.690;8.952;2023-07-09T05:03:48;6.90;;;5.30;;
9106;SDS011;4589;48.690;8.952;2023-07-09T05:06:14;7.50;;;4.97;;
9106;SDS011;4589;48.690;8.952;2023-07-09T05:08:40;7.50;;;5.37;;
9106;SDS011;4589;48.690;8.952;2023-07-09T05:11:06;8.30;;;5.40;;
9106;SDS011;4589;48.690;8.952;2023-07-09T05:13:32;7.47;;;5.33;;
9106;SDS011;4589;48.690;8.952;2023-07-09T05:15:58;6.10;;;5.10;;
9106;SDS011;4589;48.690;8.952;2023-07-09T05:18:23;6.80;;;5.30;;
9106;SDS011;4589;48.690;8.952;2023-07-09T05:20:49;9.07;;;5.63;;
9106;SDS011;4589;48.690;8.952;2023-07-09T05:23:14;5.73;;;5.13;;
9106;SDS011;4589;48.690;8.952;2023-07-09T05:25:40;6.97;;;5.30;;
9106;SDS011;4589;48.690;8.952;2023-07-09T05:28:06;5.27;;;4.77;;
9106;SDS011;4589;48.690;8.952;2023-07-09T05:30:32;5.30;;;4.27;;
9106;SDS011;4589;48.690;8.952;2023-07-09T05:32:58;6.27;;;5.60;;
9106;SDS011;4589;48.690;8.952;2023-07-09T05:35:24;6.50;;;4.90;;
9106;SDS011;4589;48.690;8.952;2023-07-09T05:37:51;6.43;;;5.40;;
9106;SDS011;4589;48.690;8.952;2023-07-09T05:40:20;7.40;;;5.80;;
9106;SDS011;4589;48.690;8.952;2023-07-09T05:42:47;6.50;;;4.43;;
9106;SDS011;4589;48.690;8.952;2023-07-09T05:45:13;5.30;;;4.80;;
9106;SDS011;4589;48.690;8.952;2023-07-09T05:47:39;7.10;;;4.70;;
9106;SDS011;4589;48.690;8.952;2023-07-09T05:50:05;6.53;;;5.20;;
9106;SDS011;4589;48.690;8.952;2023-07-09T05:52:31;5.67;;;4.87;;
9106;SDS011;4589;48.690;8.952;2023-07-09T05:54:56;7.90;;;4.80;;
9106;SDS011;4589;48.690;8.952;2023-07-09T05:57:22;5.33;;;4.80;;
9106;SDS011;4589;48.690;8.952;2023-07-09T05:59:48;10.03;;;4.80;;
9106;SDS011;4589;48.690;8.952;2023-07-09T06:02:15;5.70;;;4.33;;
9106;SDS011;4589;48.690;8.952;2023-07-09T06:04:43;6.43;;;4.53;;
9106;SDS011;4589;48.690;8.952;2023-07-09T06:07:09;11.60;;;5.30;;
9106;SDS011;4589;48.690;8.952;2023-07-09T06:09:35;7.20;;;4.57;;
9106;SDS011;4589;48.690;8.952;2023-07-09T06:12:02;4.73;;;4.17;;
9106;SDS011;4589;48.690;8.952;2023-07-09T06:14:28;5.60;;;5.03;;
9106;SDS011;4589;48.690;8.952;2023-07-09T06:16:53;5.93;;;4.90;;
9106;SDS011;4589;48.690;8.952;2023-07-09T06:19:19;5.30;;;4.80;;
9106;SDS011;4589;48.690;8.952;2023-07-09T06:21:45;5.07;;;3.97;;
9106;SDS011;4589;48.690;8.952;2023-07-09T06:24:10;4.83;;;4.33;;
9106;SDS011;4589;48.690;8.952;2023-07-09T06:26:36;4.73;;;4.30;;
9106;SDS011;4589;48.690;8.952;2023-07-09T06:29:02;6.47;;;4.90;;
9106;SDS011;4589;48.690;8.952;2023-07-09T06:31:28;8.13;;;4.33;;
9106;SDS011;4589;48.690;8.952;2023-07-09T06:33:54;4.77;;;4.27;;
9106;SDS011;4589;48.690;8.952;2023-07-09T06:36:20;6.83;;;4.50;;
9106;SDS011;4589;48.690;8.952;2023-07-09T06:38:45;7.13;;;4.47;;
9106;SDS011;4589;48.690;8.952;2023-07-09T06:41:11;5.30;;;4.50;;
9106;SDS011;4589;48.690;8.952;2023-07-09T06:43:38;6.00;;;4.47;;
9106;SDS011;4589;48.690;8.952;2023-07-09T06:46:04;7.30;;;4.27;;
9106;SDS011;4589;48.690;8.952;2023-07-09T06:48:31;9.20;;;5.00;;
9106;SDS011;4589;48.690;8.952;2023-07-09T06:50:58;4.87;;;4.37;;
9106;SDS011;4589;48.690;8.952;2023-07-09T06:53:24;9.73;;;4.93;;
9106;SDS011;4589;48.690;8.952;2023-07-09T06:55:52;5.30;;;4.80;;
9106;SDS011;4589;48.690;8.952;2023-07-09T06:58:21;7.37;;;4.73;;
9106;SDS011;4589;48.690;8.952;2023-07-09T07:00:50;5.73;;;4.13;;
9106;SDS011;4589;48.690;8.952;2023-07-09T07:03:16;5.10;;;4.30;;
9106;SDS011;4589;48.690;8.952;2023-07-09T07:05:43;7.40;;;4.17;;
9106;SDS011;4589;48.690;8.952;2023-07-09T07:08:14;4.20;;;3.80;;
9106;SDS011;4589;48.690;8.952;2023-07-09T07:10:42;5.20;;;4.43;;
9106;SDS011;4589;48.690;8.952;2023-07-09T07:13:08;6.93;;;3.90;;
9106;SDS011;4589;48.690;8.952;2023-07-09T07:15:36;5.50;;;3.90;;
9106;SDS011;4589;48.690;8.952;2023-07-09T07:18:03;7.03;;;4.90;;
9106;SDS011;4589;48.690;8.952;2023-07-09T07:20:29;4.30;;;3.77;;
9106;SDS011;4589;48.690;8.952;2023-07-09T07:22:55;7.20;;;4.60;;
9106;SDS011;4589;48.690;8.952;2023-07-09T07:25:21;5.43;;;4.00;;
9106;SDS011;4589;48.690;8.952;2023-07-09T07:27:47;5.40;;;4.13;;
9106;SDS011;4589;48.690;8.952;2023-07-09T07:30:13;5.60;;;3.57;;
9106;SDS011;4589;48.690;8.952;2023-07-09T07:32:42;4.80;;;4.20;;
9106;SDS011;4589;48.690;8.952;2023-07-09T07:35:09;4.03;;;3.63;;
9106;SDS011;4589;48.690;8.952;2023-07-09T07:37:35;3.90;;;3.50;;
9106;SDS011;4589;48.690;8.952;2023-07-09T07:40:00;6.40;;;4.30;;
9106;SDS011;4589;48.690;8.952;2023-07-09T07:42:26;4.23;;;3.47;;
9106;SDS011;4589;48.690;8.952;2023-07-09T07:44:52;3.87;;;3.43;;
9106;SDS011;4589;48.690;8.952;2023-07-09T07:47:18;5.70;;;3.40;;
9106;SDS011;4589;48.690;8.952;2023-07-09T07:49:44;5.03;;;3.80;;
9106;SDS011;4589;48.690;8.952;2023-07-09T07:52:10;5.37;;;3.60;;
9106;SDS011;4589;48.690;8.952;2023-07-09T07:54:35;5.40;;;3.80;;
9106;SDS011;4589;48.690;8.952;2023-07-09T07:57:01;4.50;;;3.40;;
9106;SDS011;4589;48.690;8.952;2023-07-09T07:59:28;5.80;;;3.40;;
9106;SDS011;4589;48.690;8.952;2023-07-09T08:01:53;4.60;;;3.67;;
9106;SDS011;4589;48.690;8.952;2023-07-09T08:04:19;4.73;;;3.63;;
9106;SDS011;4589;48.690;8.952;2023-07-09T08:06:45;5.10;;;2.80;;
9106;SDS011;4589;48.690;8.952;2023-07-09T08:09:11;4.27;;;3.40;;
9106;SDS011;4589;48.690;8.952;2023-07-09T08:11:37;4.97;;;3.20;;
9106;SDS011;4589;48.690;8.952;2023-07-09T08:14:03;3.63;;;3.20;;
9106;SDS011;4589;48.690;8.952;2023-07-09T08:16:29;4.47;;;3.60;;
9106;SDS011;4589;48.690;8.952;2023-07-09T08:18:55;4.40;;;3.50;;
9106;SDS011;4589;48.690;8.952;2023-07-09T08:21:21;4.20;;;3.50;;
9106;SDS011;4589;48.690;8.952;2023-07-09T08:23:47;4.07;;;3.43;;
9106;SDS011;4589;48.690;8.952;2023-07-09T08:26:13;4.67;;;3.20;;
9106;SDS011;4589;48.690;8.952;2023-07-09T08:28:38;3.50;;;3.20;;
9106;SDS011;4589;48.690;8.952;2023-07-09T08:31:04;6.43;;;3.30;;
9106;SDS011;4589;48.690;8.952;2023-07-09T08:33:29;3.80;;;3.20;;
9106;SDS011;4589;48.690;8.952;2023-07-09T08:35:56;3.57;;;3.00;;
9106;SDS011;4589;48.690;8.952;2023-07-09T08:38:22;3.43;;;3.10;;
9106;SDS011;4589;48.690;8.952;2023-07-09T08:48:49;3.43;;;2.80;;
9106;SDS011;4589;48.690;8.952;2023-07-09T08:51:24;3.37;;;3.07;;
9106;SDS011;4589;48.690;8.952;2023-07-09T08:53:55;4.10;;;3.00;;
9106;SDS011;4589;48.690;8.952;2023-07-09T08:56:22;3.87;;;3.47;;
9106;SDS011;4589;48.690;8.952;2023-07-09T08:58:49;5.53;;;3.27;;
9106;SDS011;4589;48.690;8.952;2023-07-09T09:01:24;5.33;;;3.07;;
9106;SDS011;4589;48.690;8.952;2023-07-09T09:03:58;5.37;;;3.27;;
9106;SDS011;4589;48.690;8.952;2023-07-09T09:06:39;3.87;;;3.13;;
9106;SDS011;4589;48.690;8.952;2023-07-09T09:14:31;4.40;;;3.10;;
9106;SDS011;4589;48.690;8.952;2023-07-09T09:16:57;4.43;;;3.47;;
9106;SDS011;4589;48.690;8.952;2023-07-09T09:19:28;3.20;;;3.00;;
9106;SDS011;4589;48.690;8.952;2023-07-09T09:22:10;4.13;;;3.73;;
9106;SDS011;4589;48.690;8.952;2023-07-09T09:27:25;4.77;;;3.30;;
9106;SDS011;4589;48.690;8.952;2023-07-09T09:29:51;3.85;;;3.45;;
9106;SDS011;4589;48.690;8.952;2023-07-09T09:32:18;6.72;;;3.78;;
9106;SDS011;4589;48.690;8.952;2023-07-09T09:34:52;11.13;;;3.42;;
9106;SDS011;4589;48.690;8.952;2023-07-09T09:37:24;3.88;;;3.50;;
9106;SDS011;4589;48.690;8.952;2023-07-09T09:39:55;5.05;;;2.97;;
9106;SDS011;4589;48.690;8.952;2023-07-09T09:42:23;4.40;;;3.25;;
9106;SDS011;4589;48.690;8.952;2023-07-09T09:44:50;3.80;;;3.50;;
9106;SDS011;4589;48.690;8.952;2023-07-09T09:47:18;3.90;;;3.17;;
9106;SDS011;4589;48.690;8.952;2023-07-09T09:49:43;4.13;;;3.20;;
9106;SDS011;4589;48.690;8.952;2023-07-09T09:52:13;4.10;;;3.70;;
9106;SDS011;4589;48.690;8.952;2023-07-09T09:54:41;4.07;;;3.10;;
9106;SDS011;4589;48.690;8.952;2023-07-09T09:57:16;4.00;;;3.40;;
9106;SDS011;4589;48.690;8.952;2023-07-09T09:59:44;5.70;;;3.00;;
9106;SDS011;4589;48.690;8.952;2023-07-09T10:02:21;4.43;;;2.75;;
9106;SDS011;4589;48.690;8.952;2023-07-09T10:04:49;3.88;;;3.20;;
9106;SDS011;4589;48.690;8.952;2023-07-09T10:07:21;3.20;;;2.90;;
9106;SDS011;4589;48.690;8.952;2023-07-09T10:09:57;3.83;;;3.10;;
9106;SDS011;4589;48.690;8.952;2023-07-09T10:20:27;3.33;;;3.10;;
9106;SDS011;4589;48.690;8.952;2023-07-09T10:26:09;3.50;;;3.20;;
9106;SDS011;4589;48.690;8.952;2023-07-09T10:31:44;6.50;;;4.80;;
9106;SDS011;4589;48.690;8.952;2023-07-09T10:34:21;4.80;;;3.40;;
9106;SDS011;4589;48.690;8.952;2023-07-09T10:39:37;4.30;;;3.30;;
9106;SDS011;4589;48.690;8.952;2023-07-09T10:42:10;3.57;;;2.83;;
9106;SDS011;4589;48.690;8.952;2023-07-09T10:44:55;7.80;;;3.30;;
9106;SDS011;4589;48.690;8.952;2023-07-09T10:47:28;4.57;;;3.67;;
9106;SDS011;4589;48.690;8.952;2023-07-09T10:49:59;3.90;;;3.50;;
9106;SDS011;4589;48.690;8.952;2023-07-09T10:52:28;5.60;;;3.30;;
9106;SDS011;4589;48.690;8.952;2023-07-09T10:58:04;5.82;;;3.60;;
9106;SDS011;4589;48.690;8.952;2023-07-09T11:00:39;5.00;;;3.35;;
9106;SDS011;4589;48.690;8.952;2023-07-09T11:03:13;5.70;;;3.30;;
9106;SDS011;4589;48.690;8.952;2023-07-09T11:05:44;3.80;;;3.23;;
9106;SDS011;4589;48.690;8.952;2023-07-09T11:08:14;3.30;;;2.97;;
9106;SDS011;4589;48.690;8.952;2023-07-09T11:10:49;4.13;;;3.27;;
9106;SDS011;4589;48.690;8.952;2023-07-09T11:13:52;5.70;;;3.50;;
9106;SDS011;4589;48.690;8.952;2023-07-09T11:16:14;3.43;;;3.13;;
9106;SDS011;4589;48.690;8.952;2023-07-09T11:18:59;4.07;;;3.00;;
9106;SDS011;4589;48.690;8.952;2023-07-09T11:21:28;5.00;;;2.97;;
9106;SDS011;4589;48.690;8.952;2023-07-09T11:23:57;9.20;;;4.10;;
9106;SDS011;4589;48.690;8.952;2023-07-09T11:28:52;3.27;;;2.97;;
9106;SDS011;4589;48.690;8.952;2023-07-09T11:36:32;6.00;;;3.73;;
9106;SDS011;4589;48.690;8.952;2023-07-09T11:38:59;5.33;;;4.07;;
9106;SDS011;4589;48.690;8.952;2023-07-09T11:41:37;4.57;;;3.77;;
9106;SDS011;4589;48.690;8.952;2023-07-09T11:46:33;3.60;;;3.13;;
9106;SDS011;4589;48.690;8.952;2023-07-09T11:49:02;3.63;;;3.33;;
9106;SDS011;4589;48.690;8.952;2023-07-09T11:51:42;5.53;;;5.00;;
9106;SDS011;4589;48.690;8.952;2023-07-09T11:54:14;4.23;;;3.43;;
9106;SDS011;4589;48.690;8.952;2023-07-09T11:56:40;4.20;;;3.47;;
9106;SDS011;4589;48.690;8.952;2023-07-09T11:59:13;5.13;;;3.43;;
9106;SDS011;4589;48.690;8.952;2023-07-09T12:01:42;4.13;;;3.33;;
9106;SDS011;4589;48.690;8.952;2023-07-09T12:04:14;7.40;;;3.50;;
9106;SDS011;4589;48.690;8.952;2023-07-09T12:06:42;5.33;;;3.63;;
9106;SDS011;4589;48.690;8.952;2023-07-09T12:09:12;4.03;;;3.63;;
9106;SDS011;4589;48.690;8.952;2023-07-09T12:11:43;4.60;;;3.40;;
9106;SDS011;4589;48.690;8.952;2023-07-09T12:14:11;3.90;;;3.30;;
9106;SDS011;4589;48.690;8.952;2023-07-09T12:16:40;6.40;;;3.50;;
9106;SDS011;4589;48.690;8.952;2023-07-09T12:19:13;5.63;;;3.80;;
9106;SDS011;4589;48.690;8.952;2023-07-09T12:21:44;6.50;;;3.37;;
9106;SDS011;4589;48.690;8.952;2023-07-09T12:24:15;4.63;;;3.67;;
9106;SDS011;4589;48.690;8.952;2023-07-09T12:26:52;6.93;;;4.00;;
9106;SDS011;4589;48.690;8.952;2023-07-09T12:29:18;3.87;;;3.47;;
9106;SDS011;4589;48.690;8.952;2023-07-09T12:31:44;4.17;;;3.63;;
9106;SDS011;4589;48.690;8.952;2023-07-09T12:34:12;3.53;;;3.10;;
9106;SDS011;4589;48.690;8.952;2023-07-09T12:36:41;4.83;;;3.57;;
9106;SDS011;4589;48.690;8.952;2023-07-09T12:39:11;3.70;;;3.40;;
9106;SDS011;4589;48.690;8.952;2023-07-09T12:41:40;5.80;;;3.83;;
9106;SDS011;4589;48.690;8.952;2023-07-09T12:44:14;5.67;;;3.63;;
9106;SDS011;4589;48.690;8.952;2023-07-09T12:46:44;6.07;;;4.23;;
9106;SDS011;4589;48.690;8.952;2023-07-09T12:51:51;5.07;;;4.10;;
9106;SDS011;4589;48.690;8.952;2023-07-09T12:54:29;5.07;;;4.00;;
9106;SDS011;4589;48.690;8.952;2023-07-09T12:56:55;6.03;;;3.40;;
9106;SDS011;4589;48.690;8.952;2023-07-09T12:59:26;7.30;;;3.77;;
9106;SDS011;4589;48.690;8.952;2023-07-09T13:04:38;8.10;;;4.20;;
9106;SDS011;4589;48.690;8.952;2023-07-09T13:07:04;6.20;;;3.07;;
9106;SDS011;4589;48.690;8.952;2023-07-09T13:09:30;4.83;;;3.57;;
9106;SDS011;4589;48.690;8.952;2023-07-09T13:11:56;4.70;;;3.70;;
9106;SDS011;4589;48.690;8.952;2023-07-09T13:14:30;5.43;;;3.70;;
9106;SDS011;4589;48.690;8.952;2023-07-09T13:17:04;5.70;;;3.93;;
9106;SDS011;4589;48.690;8.952;2023-07-09T13:19:31;3.63;;;3.20;;
9106;SDS011;4589;48.690;8.952;2023-07-09T13:21:56;4.37;;;3.47;;
9106;SDS011;4589;48.690;8.952;2023-07-09T13:24:24;5.70;;;3.90;;
9106;SDS011;4589;48.690;8.952;2023-07-09T13:26:52;7.43;;;4.00;;
9106;SDS011;4589;48.690;8.952;2023-07-09T13:29:19;3.83;;;3.33;;
9106;SDS011;4589;48.690;8.952;2023-07-09T13:31:45;5.90;;;3.97;;
9106;SDS011;4589;48.690;8.952;2023-07-09T13:34:24;6.47;;;3.70;;
9106;SDS011;4589;48.690;8.952;2023-07-09T13:36:52;4.30;;;2.90;;
9106;SDS011;4589;48.690;8.952;2023-07-09T13:39:19;5.80;;;3.07;;
9106;SDS011;4589;48.690;8.952;2023-07-09T13:41:45;5.23;;;3.00;;
9106;SDS011;4589;48.690;8.952;2023-07-09T13:44:13;4.77;;;3.20;;
9106;SDS011;4589;48.690;8.952;2023-07-09T13:46:41;4.23;;;3.17;;
9106;SDS011;4589;48.690;8.952;2023-07-09T13:49:14;5.43;;;3.33;;
9106;SDS011;4589;48.690;8.952;2023-07-09T13:51:43;4.23;;;3.00;;
9106;SDS011;4589;48.690;8.952;2023-07-09T13:54:23;6.80;;;3.57;;
9106;SDS011;4589;48.690;8.952;2023-07-09T13:56:50;3.90;;;3.20;;
9106;SDS011;4589;48.690;8.952;2023-07-09T13:59:21;3.27;;;2.83;;
9106;SDS011;4589;48.690;8.952;2023-07-09T14:01:49;4.23;;;2.57;;
9106;SDS011;4589;48.690;8.952;2023-07-09T14:04:17;5.13;;;3.47;;
9106;SDS011;4589;48.690;8.952;2023-07-09T14:06:44;4.27;;;2.83;;
9106;SDS011;4589;48.690;8.952;2023-07-09T14:09:11;6.50;;;3.00;;
9106;SDS011;4589;48.690;8.952;2023-07-09T14:11:38;3.50;;;3.20;;
9106;SDS011;4589;48.690;8.952;2023-07-09T14:14:19;3.50;;;3.13;;
9106;SDS011;4589;48.690;8.952;2023-07-09T14:16:49;6.43;;;2.93;;
9106;SDS011;4589;48.690;8.952;2023-07-09T14:19:17;5.30;;;2.90;;
9106;SDS011;4589;48.690;8.952;2023-07-09T14:21:46;3.80;;;3.13;;
9106;SDS011;4589;48.690;8.952;2023-07-09T14:24:19;3.97;;;3.13;;
9106;SDS011;4589;48.690;8.952;2023-07-09T14:26:48;3.10;;;2.80;;
9106;SDS011;4589;48.690;8.952;2023-07-09T14:29:14;4.53;;;2.87;;
9106;SDS011;4589;48.690;8.952;2023-07-09T14:31:40;3.23;;;2.50;;
9106;SDS011;4589;48.690;8.952;2023-07-09T14:36:46;4.83;;;4.30;;
9106;SDS011;4589;48.690;8.952;2023-07-09T14:39:12;6.70;;;3.30;;
9106;SDS011;4589;48.690;8.952;2023-07-09T14:41:38;5.40;;;3.20;;
9106;SDS011;4589;48.690;8.952;2023-07-09T14:44:37;6.20;;;3.10;;
9106;SDS011;4589;48.690;8.952;2023-07-09T14:46:57;4.17;;;3.10;;
9106;SDS011;4589;48.690;8.952;2023-07-09T14:49:24;3.33;;;3.03;;
9106;SDS011;4589;48.690;8.952;2023-07-09T14:51:51;3.93;;;3.10;;
9106;SDS011;4589;48.690;8.952;2023-07-09T14:54:22;8.17;;;3.30;;
9106;SDS011;4589;48.690;8.952;2023-07-09T14:56:51;7.33;;;3.10;;
9106;SDS011;4589;48.690;8.952;2023-07-09T14:59:17;2.50;;;2.30;;
9106;SDS011;4589;48.690;8.952;2023-07-09T15:01:43;3.80;;;3.13;;
9106;SDS011;4589;48.690;8.952;2023-07-09T15:06:58;3.53;;;3.23;;
9106;SDS011;4589;48.690;8.952;2023-07-09T15:09:25;5.60;;;3.20;;
9106;SDS011;4589;48.690;8.952;2023-07-09T15:11:52;3.40;;;3.10;;
9106;SDS011;4589;48.690;8.952;2023-07-09T15:14:23;3.27;;;2.97;;
9106;SDS011;4589;48.690;8.952;2023-07-09T15:16:50;5.67;;;3.43;;
9106;SDS011;4589;48.690;8.952;2023-07-09T15:19:17;3.27;;;2.77;;
9106;SDS011;4589;48.690;8.952;2023-07-09T15:21:44;4.93;;;3.03;;
9106;SDS011;4589;48.690;8.952;2023-07-09T15:24:13;3.67;;;3.00;;
9106;SDS011;4589;48.690;8.952;2023-07-09T15:26:52;6.63;;;3.20;;
9106;SDS011;4589;48.690;8.952;2023-07-09T15:29:19;3.43;;;3.07;;
9106;SDS011;4589;48.690;8.952;2023-07-09T15:31:46;8.70;;;3.20;;
9106;SDS011;4589;48.690;8.952;2023-07-09T15:34:12;3.60;;;2.80;;
9106;SDS011;4589;48.690;8.952;2023-07-09T15:36:41;2.97;;;2.70;;
9106;SDS011;4589;48.690;8.952;2023-07-09T15:39:11;5.07;;;3.00;;
9106;SDS011;4589;48.690;8.952;2023-07-09T15:41:37;3.90;;;2.93;;
9106;SDS011;4589;48.690;8.952;2023-07-09T15:44:03;3.20;;;2.90;;
9106;SDS011;4589;48.690;8.952;2023-07-09T15:46:29;3.03;;;2.73;;
9106;SDS011;4589;48.690;8.952;2023-07-09T15:48:55;3.90;;;2.90;;
9106;SDS011;4589;48.690;8.952;2023-07-09T15:51:21;4.00;;;2.63;;
9106;SDS011;4589;48.690;8.952;2023-07-09T15:53:47;4.30;;;2.90;;
9106;SDS011;4589;48.690;8.952;2023-07-09T15:56:26;7.03;;;2.83;;
9106;SDS011;4589;48.690;8.952;2023-07-09T15:58:55;3.63;;;2.83;;
9106;SDS011;4589;48.690;8.952;2023-07-09T16:01:22;3.27;;;2.90;;
9106;SDS011;4589;48.690;8.952;2023-07-09T16:03:49;3.70;;;3.00;;
9106;SDS011;4589;48.690;8.952;2023-07-09T16:06:16;6.10;;;2.80;;
9106;SDS011;4589;48.690;8.952;2023-07-09T16:08:43;8.50;;;2.63;;
9106;SDS011;4589;48.690;8.952;2023-07-09T16:11:16;6.97;;;4.10;;
9106;SDS011;4589;48.690;8.952;2023-07-09T16:13:46;7.47;;;3.60;;
9106;SDS011;4589;48.690;8.952;2023-07-09T16:16:16;9.37;;;7.73;;
9106;SDS011;4589;48.690;8.952;2023-07-09T16:18:44;6.90;;;6.37;;
9106;SDS011;4589;48.690;8.952;2023-07-09T16:21:15;6.63;;;3.63;;